Time;durP1;ratioP1;P1;durP2;ratioP2;P2;SDS_P1;SDS_P2;PMS_P1;PMS_P2;Temp;Humidity;BMP_temperature;BMP_pressure;BME280_temperature;BME280_humidity;BME280_pressure;Samples;Min_cycle;Max_cycle;Signal;HPM_P1;HPM_P2
2021/11/18 00:02:24;;;;;;;3.75;1.50;;;;;;;;;;4941922;29;20062;-73
2021/11/18 00:04:55;;;;;;;3.15;1.40;;;;;;;;;;4981426;28;20057;-73
2021/11/18 00:07:26;;;;;;;6.78;1.80;;;;;;;;;;4969617;28;20407;-74
2021/11/18 00:09:56;;;;;;;3.53;1.50;;;;;;;;;;4937607;28;20066;-75
2021/11/18 00:12:27;;;;;;;3.83;1.80;;;;;;;;;;4950407;29;20055;-74
2021/11/18 00:14:58;;;;;;;3.15;1.63;;;;;;;;;;4934536;29;20063;-75
2021/11/18 00:17:28;;;;;;;4.60;1.83;;;;;;;;;;4934862;29;20051;-75
2021/11/18 00:19:59;;;;;;;3.25;1.48;;;;;;;;;;4950452;29;20081;-74
2021/11/18 00:22:29;;;;;;;7.88;1.80;;;;;;;;;;4934661;29;20059;-75
2021/11/18 00:24:59;;;;;;;4.88;1.65;;;;;;;;;;4918412;29;20051;-74
2021/11/18 00:27:30;;;;;;;3.95;2.00;;;;;;;;;;4950412;29;20070;-75
2021/11/18 00:30:00;;;;;;;3.25;1.77;;;;;;;;;;4934517;29;20658;-75
2021/11/18 00:32:31;;;;;;;7.60;2.60;;;;;;;;;;4980494;28;20586;-75
2021/11/18 00:35:03;;;;;;;;;;;;;;;;;;4961082;28;20391;-75
2021/11/18 00:37:34;;;;;;;2.67;1.73;;;;;;;;;;5008641;28;19922;-75
2021/11/18 00:40:07;;;;;;;6.07;1.88;;;;;;;;;;4969455;28;20063;-74
2021/11/18 00:42:37;;;;;;;4.97;1.85;;;;;;;;;;4969466;28;20058;-74
2021/11/18 00:45:10;;;;;;;6.40;2.10;;;;;;;;;;4970057;28;20411;-74
2021/11/18 00:47:41;;;;;;;4.55;1.80;;;;;;;;;;4969318;28;20140;-73
2021/11/18 00:50:12;;;;;;;6.65;1.90;;;;;;;;;;4982054;28;20403;-73
2021/11/18 00:52:42;;;;;;;7.07;2.15;;;;;;;;;;4992159;28;20534;-73
2021/11/18 00:55:13;;;;;;;3.70;1.90;;;;;;;;;;4992242;28;20516;-74
2021/11/18 00:57:44;;;;;;;6.25;2.13;;;;;;;;;;4972670;28;20066;-73
2021/11/18 01:00:24;;;;;;;5.22;2.25;;;;;;;;;;4953188;29;20066;-73
2021/11/18 01:02:58;;;;;;;4.72;2.15;;;;;;;;;;4933629;29;20052;-72
2021/11/18 01:05:32;;;;;;;5.13;2.45;;;;;;;;;;4918374;29;20060;-73
2021/11/18 01:08:04;;;;;;;5.60;2.25;;;;;;;;;;4914951;29;20052;-75
2021/11/18 01:10:40;;;;;;;4.30;2.20;;;;;;;;;;4896036;29;20425;-74
2021/11/18 01:13:11;;;;;;;8.90;2.17;;;;;;;;;;4896382;29;20057;-74
2021/11/18 01:15:44;;;;;;;5.53;2.20;;;;;;;;;;4895562;29;20049;-73
2021/11/18 01:18:15;;;;;;;3.13;2.00;;;;;;;;;;4876994;29;20093;-74
2021/11/18 01:20:46;;;;;;;6.32;2.03;;;;;;;;;;4879897;29;20475;-74
2021/11/18 01:23:22;;;;;;;3.85;1.90;;;;;;;;;;4891463;29;20091;-74
2021/11/18 01:25:54;;;;;;;6.80;2.50;;;;;;;;;;4877321;29;20057;-73
2021/11/18 01:28:27;;;;;;;3.88;2.10;;;;;;;;;;4914465;29;20451;-72
2021/11/18 01:30:58;;;;;;;7.82;2.20;;;;;;;;;;4899500;29;20064;-73
2021/11/18 01:33:30;;;;;;;7.20;2.63;;;;;;;;;;4914367;29;20055;-72
2021/11/18 01:36:01;;;;;;;9.77;2.40;;;;;;;;;;4900002;29;20601;-73
2021/11/18 01:38:35;;;;;;;6.80;2.30;;;;;;;;;;4909549;29;20052;-73
2021/11/18 01:41:26;;;;;;;6.20;2.22;;;;;;;;;;4902965;29;20623;-74
2021/11/18 01:44:03;;;;;;;4.25;2.17;;;;;;;;;;4895167;29;20056;-74
2021/11/18 01:46:36;;;;;;;6.75;2.63;;;;;;;;;;4895080;29;20052;-73
2021/11/18 01:49:16;;;;;;;12.90;2.67;;;;;;;;;;4895494;29;20426;-73
2021/11/18 01:51:52;;;;;;;5.63;2.22;;;;;;;;;;4895314;29;20413;-73
2021/11/18 01:54:28;;;;;;;7.03;2.67;;;;;;;;;;4881519;29;20052;-74
2021/11/18 01:57:00;;;;;;;4.25;2.30;;;;;;;;;;4896423;29;20049;-74
2021/11/18 01:59:35;;;;;;;6.35;2.40;;;;;;;;;;4878238;29;20053;-73
2021/11/18 02:02:46;;;;;;;8.45;2.60;;;;;;;;;;4876167;29;20080;-74
2021/11/18 02:05:26;;;;;;;9.75;2.38;;;;;;;;;;4876761;29;20061;-73
2021/11/18 02:08:01;;;;;;;8.07;2.35;;;;;;;;;;4909982;29;20057;-73
2021/11/18 02:10:44;;;;;;;5.63;2.42;;;;;;;;;;4889426;29;20056;-73
2021/11/18 02:13:18;;;;;;;10.43;2.58;;;;;;;;;;4823589;29;20055;-73
2021/11/18 02:15:57;;;;;;;7.88;2.30;;;;;;;;;;4799550;29;20063;-73
2021/11/18 02:18:35;;;;;;;7.95;2.33;;;;;;;;;;4799180;29;20069;-73
2021/11/18 02:21:14;;;;;;;6.28;2.45;;;;;;;;;;4820615;29;20062;-73
2021/11/18 02:23:53;;;;;;;3.20;2.33;;;;;;;;;;4844349;29;20054;-73
2021/11/18 02:26:25;;;;;;;;;;;;;;;;;;4842454;29;20053;-72
2021/11/18 02:29:02;;;;;;;7.00;2.70;;;;;;;;;;4833944;29;20352;-72
2021/11/18 02:31:49;;;;;;;4.60;2.60;;;;;;;;;;4834996;29;20073;-73
2021/11/18 02:34:30;;;;;;;4.18;2.40;;;;;;;;;;4814400;29;20062;-73
2021/11/18 02:37:01;;;;;;;7.30;2.50;;;;;;;;;;4857085;29;20057;-73
2021/11/18 02:39:31;;;;;;;4.97;2.30;;;;;;;;;;4857550;29;20064;-72
2021/11/18 02:42:06;;;;;;;3.95;2.47;;;;;;;;;;4857270;29;20053;-72
2021/11/18 02:44:39;;;;;;;6.35;2.75;;;;;;;;;;4841948;29;20053;-72
2021/11/18 02:47:14;;;;;;;4.90;2.70;;;;;;;;;;4894455;29;20049;-73
2021/11/18 02:49:53;;;;;;;5.97;2.97;;;;;;;;;;4914482;29;20083;-72
2021/11/18 02:52:28;;;;;;;5.18;2.75;;;;;;;;;;4949473;28;20055;-73
2021/11/18 02:55:05;;;;;;;6.72;3.25;;;;;;;;;;4897413;29;20060;-73
2021/11/18 02:57:36;;;;;;;9.27;3.40;;;;;;;;;;4932172;29;20055;-72
2021/11/18 03:00:18;;;;;;;5.30;3.22;;;;;;;;;;4918895;28;20055;-72
2021/11/18 03:02:49;;;;;;;7.05;3.90;;;;;;;;;;4897691;29;20067;-72
2021/11/18 03:05:21;;;;;;;5.85;3.65;;;;;;;;;;4894092;29;20493;-72
2021/11/18 03:07:52;;;;;;;5.10;3.08;;;;;;;;;;4951063;29;20142;-72
2021/11/18 03:10:23;;;;;;;9.27;2.88;;;;;;;;;;4954105;28;20051;-72
2021/11/18 03:12:53;;;;;;;8.88;3.20;;;;;;;;;;4970106;28;20059;-72
2021/11/18 03:15:25;;;;;;;5.60;3.38;;;;;;;;;;4950786;28;20131;-72
2021/11/18 03:17:56;;;;;;;5.90;3.33;;;;;;;;;;4934973;28;20077;-72
2021/11/18 03:20:30;;;;;;;7.32;3.47;;;;;;;;;;4946782;28;20539;-72
2021/11/18 03:23:03;;;;;;;11.00;3.47;;;;;;;;;;4897345;29;20067;-72
2021/11/18 03:25:37;;;;;;;7.85;3.50;;;;;;;;;;4908734;29;20064;-72
2021/11/18 03:28:21;;;;;;;5.35;3.20;;;;;;;;;;4931251;29;20051;-71
2021/11/18 03:30:54;;;;;;;7.72;3.63;;;;;;;;;;4897077;29;20048;-73
2021/11/18 03:33:44;;;;;;;5.60;3.40;;;;;;;;;;4912578;29;20059;-73
2021/11/18 03:36:16;;;;;;;6.53;3.40;;;;;;;;;;4912708;29;20064;-71
2021/11/18 03:38:51;;;;;;;5.32;2.97;;;;;;;;;;4911372;29;20056;-72
2021/11/18 03:41:30;;;;;;;;;;;;;;;;;;4875185;29;20056;-71
2021/11/18 03:44:03;;;;;;;6.43;3.00;;;;;;;;;;4856166;29;19924;-71
2021/11/18 03:46:41;;;;;;;5.07;3.20;;;;;;;;;;4808487;29;20065;-73
2021/11/18 03:49:13;;;;;;;4.85;3.13;;;;;;;;;;4819540;29;20058;-71
2021/11/18 03:51:49;;;;;;;5.68;3.13;;;;;;;;;;4837577;29;20050;-73
2021/11/18 03:54:22;;;;;;;;;;;;;;;;;;4838109;29;20426;-74
2021/11/18 03:56:55;;;;;;;6.38;3.30;;;;;;;;;;4837887;29;19924;-72
2021/11/18 03:59:29;;;;;;;7.25;3.58;;;;;;;;;;4829115;29;20073;-73
2021/11/18 04:02:05;;;;;;;7.65;3.72;;;;;;;;;;4855784;29;20052;-73
2021/11/18 04:04:43;;;;;;;6.50;4.22;;;;;;;;;;4856229;29;20526;-73
2021/11/18 04:07:15;;;;;;;6.22;3.50;;;;;;;;;;4874856;29;20061;-73
2021/11/18 04:09:48;;;;;;;7.40;3.88;;;;;;;;;;4874741;29;20099;-73
2021/11/18 04:12:20;;;;;;;6.68;3.88;;;;;;;;;;4855739;29;20061;-73
2021/11/18 04:14:50;;;;;;;10.35;4.20;;;;;;;;;;4855960;29;20404;-73
2021/11/18 04:17:21;;;;;;;9.05;4.55;;;;;;;;;;4887960;29;20391;-73
2021/11/18 04:19:52;;;;;;;7.10;3.75;;;;;;;;;;4893321;29;20052;-73
2021/11/18 04:22:23;;;;;;;8.25;4.00;;;;;;;;;;4882290;29;20053;-73
2021/11/18 04:24:54;;;;;;;8.95;4.13;;;;;;;;;;4871762;29;20065;-73
2021/11/18 04:27:25;;;;;;;7.90;4.07;;;;;;;;;;4877981;29;20056;-73
2021/11/18 04:29:56;;;;;;;6.38;3.97;;;;;;;;;;4884172;29;20425;-71
2021/11/18 04:32:28;;;;;;;10.48;4.20;;;;;;;;;;4896780;29;20506;-72
2021/11/18 04:35:00;;;;;;;9.20;4.65;;;;;;;;;;4896416;29;20048;-74
2021/11/18 04:37:30;;;;;;;6.68;4.47;;;;;;;;;;4884280;29;20048;-72
2021/11/18 04:40:01;;;;;;;6.93;4.40;;;;;;;;;;4866695;29;20494;-73
2021/11/18 04:42:31;;;;;;;7.22;4.38;;;;;;;;;;4841690;29;20417;-73
2021/11/18 04:45:22;;;;;;;6.72;4.72;;;;;;;;;;4877755;29;20056;-73
2021/11/18 04:47:57;;;;;;;8.60;5.57;;;;;;;;;;4876640;29;20508;-73
2021/11/18 04:50:28;;;;;;;12.45;7.22;;;;;;;;;;4886824;29;20164;-73
2021/11/18 04:52:58;;;;;;;13.30;8.52;;;;;;;;;;4896570;29;20513;-74
2021/11/18 04:55:31;;;;;;;12.30;7.53;;;;;;;;;;4896595;29;20064;-74
2021/11/18 04:58:02;;;;;;;14.48;7.13;;;;;;;;;;4883527;29;20060;-74
2021/11/18 05:00:40;;;;;;;11.02;5.78;;;;;;;;;;4874940;29;20057;-74
2021/11/18 05:03:11;;;;;;;11.35;6.35;;;;;;;;;;4895997;29;20067;-73
2021/11/18 05:05:45;;;;;;;14.63;6.70;;;;;;;;;;4856918;29;20058;-73
2021/11/18 05:08:16;;;;;;;;;;;;;;;;;;4841019;29;20050;-74
2021/11/18 05:10:51;;;;;;;12.02;6.75;;;;;;;;;;4862670;29;19939;-73
2021/11/18 05:13:26;;;;;;;13.60;7.93;;;;;;;;;;4910804;29;20063;-74
2021/11/18 05:16:08;;;;;;;14.48;7.53;;;;;;;;;;4900213;29;20079;-75
2021/11/18 05:18:39;;;;;;;12.68;7.38;;;;;;;;;;4914804;29;20052;-72
2021/11/18 05:21:12;;;;;;;12.30;7.60;;;;;;;;;;4896207;29;20053;-72
2021/11/18 05:23:45;;;;;;;12.82;7.85;;;;;;;;;;4896580;29;20208;-71
2021/11/18 05:26:19;;;;;;;15.57;8.77;;;;;;;;;;4910486;29;20059;-72
2021/11/18 05:28:56;;;;;;;15.07;7.85;;;;;;;;;;4933644;29;20056;-72
2021/11/18 05:31:30;;;;;;;13.55;8.05;;;;;;;;;;4914570;29;20048;-72
2021/11/18 05:34:18;;;;;;;14.43;8.27;;;;;;;;;;4933260;29;20516;-71
2021/11/18 05:36:50;;;;;;;13.65;8.32;;;;;;;;;;4910853;29;20501;-72
2021/11/18 05:39:20;;;;;;;16.20;8.43;;;;;;;;;;4911025;29;20063;-73
2021/11/18 05:41:54;;;;;;;15.50;9.20;;;;;;;;;;4914373;29;20052;-67
2021/11/18 05:44:25;;;;;;;16.55;10.02;;;;;;;;;;4916524;29;20101;-67
2021/11/18 05:46:56;;;;;;;18.98;10.07;;;;;;;;;;4914108;29;20055;-68
2021/11/18 05:49:28;;;;;;;13.90;8.20;;;;;;;;;;4878557;29;20053;-72
2021/11/18 05:52:01;;;;;;;13.70;8.88;;;;;;;;;;4874719;29;20058;-73
2021/11/18 05:54:31;;;;;;;18.23;9.05;;;;;;;;;;4876357;29;20248;-73
2021/11/18 05:57:03;;;;;;;17.67;10.93;;;;;;;;;;4861250;29;20053;-74
2021/11/18 05:59:34;;;;;;;17.38;10.52;;;;;;;;;;4861793;29;20196;-74
2021/11/18 06:02:05;;;;;;;18.55;10.13;;;;;;;;;;4905016;29;20044;-74
2021/11/18 06:04:35;;;;;;;18.35;10.70;;;;;;;;;;4862592;29;20064;-73
2021/11/18 06:07:08;;;;;;;21.00;12.02;;;;;;;;;;4863492;29;20395;-72
2021/11/18 06:09:40;;;;;;;20.85;11.90;;;;;;;;;;4889787;29;20110;-73
2021/11/18 06:12:11;;;;;;;25.90;12.30;;;;;;;;;;4894992;29;20072;-72
2021/11/18 06:14:42;;;;;;;21.48;11.85;;;;;;;;;;4884046;29;20052;-73
2021/11/18 06:17:13;;;;;;;23.55;12.48;;;;;;;;;;4876138;29;20069;-72
2021/11/18 06:19:47;;;;;;;23.80;12.38;;;;;;;;;;4887654;29;20060;-71
2021/11/18 06:22:24;;;;;;;23.15;12.25;;;;;;;;;;4894823;29;20097;-71
2021/11/18 06:25:07;;;;;;;21.08;12.60;;;;;;;;;;4876182;29;20061;-71
2021/11/18 06:27:43;;;;;;;24.02;12.85;;;;;;;;;;4889042;29;20063;-72
2021/11/18 06:30:34;;;;;;;24.40;13.63;;;;;;;;;;4838979;29;20065;-71
2021/11/18 06:33:07;;;;;;;23.23;13.20;;;;;;;;;;4807116;29;20062;-72
2021/11/18 06:35:38;;;;;;;28.60;13.32;;;;;;;;;;4834805;29;20065;-72
2021/11/18 06:38:30;;;;;;;24.08;13.60;;;;;;;;;;4857764;29;20058;-71
2021/11/18 06:41:02;;;;;;;26.48;13.50;;;;;;;;;;4912841;29;20056;-71
2021/11/18 06:43:34;;;;;;;25.98;13.93;;;;;;;;;;4856901;29;20498;-74
2021/11/18 06:46:06;;;;;;;23.38;12.77;;;;;;;;;;4857025;29;20062;-73
2021/11/18 06:48:37;;;;;;;24.73;13.38;;;;;;;;;;4826200;29;20068;-73
2021/11/18 06:51:20;;;;;;;24.75;13.40;;;;;;;;;;4806551;29;20071;-74
2021/11/18 06:53:54;;;;;;;29.60;13.85;;;;;;;;;;4838670;29;20449;-70
2021/11/18 06:56:29;;;;;;;25.73;13.57;;;;;;;;;;4849104;29;20053;-69
2021/11/18 06:59:01;;;;;;;29.70;14.57;;;;;;;;;;4857302;29;20046;-73
2021/11/18 07:01:38;;;;;;;28.17;13.57;;;;;;;;;;4838466;29;20213;-72
2021/11/18 07:04:10;;;;;;;28.75;14.23;;;;;;;;;;4820011;29;20058;-74
2021/11/18 07:06:41;;;;;;;;;;;;;;;;;;4820662;29;20058;-74
2021/11/18 07:09:19;;;;;;;26.58;13.15;;;;;;;;;;4820268;29;19925;-74
2021/11/18 07:12:11;;;;;;;;;;;;;;;;;;4760299;29;20563;-74
2021/11/18 07:14:42;;;;;;;28.85;14.48;;;;;;;;;;4784237;29;20294;-74
2021/11/18 07:17:13;;;;;;;34.50;13.98;;;;;;;;;;4769512;29;20090;-74
2021/11/18 07:19:45;;;;;;;32.50;13.88;;;;;;;;;;4765874;30;20552;-74
2021/11/18 07:22:18;;;;;;;30.05;14.18;;;;;;;;;;4765085;30;20051;-73
2021/11/18 07:25:14;;;;;;;30.75;13.60;;;;;;;;;;4783576;29;20052;-73
2021/11/18 07:27:49;;;;;;;28.30;14.77;;;;;;;;;;4783585;30;20052;-73
2021/11/18 07:30:22;;;;;;;28.08;14.45;;;;;;;;;;4783879;29;20440;-73
2021/11/18 07:32:52;;;;;;;;;;;;;;;;;;4801902;29;20051;-74
2021/11/18 07:35:27;;;;;;;31.73;14.30;;;;;;;;;;4783491;29;19933;-73
2021/11/18 07:37:58;;;;;;;33.83;13.80;;;;;;;;;;4801236;29;20062;-69
2021/11/18 07:40:37;;;;;;;25.38;12.00;;;;;;;;;;4805523;29;20173;-68
2021/11/18 07:43:25;;;;;;;20.98;10.93;;;;;;;;;;4821197;29;20416;-68
2021/11/18 07:46:34;;;;;;;18.73;9.90;;;;;;;;;;4844099;29;20394;-69
2021/11/18 07:49:11;;;;;;;18.02;8.80;;;;;;;;;;4863511;29;20068;-68
2021/11/18 07:51:44;;;;;;;20.20;10.73;;;;;;;;;;4893368;29;20053;-68
2021/11/18 07:54:18;;;;;;;22.98;10.13;;;;;;;;;;4889704;29;20053;-67
2021/11/18 07:56:48;;;;;;;;;;;;;;;;;;4855104;29;20060;-68
2021/11/18 07:59:22;;;;;;;17.88;8.65;;;;;;;;;;4871106;29;19924;-68
2021/11/18 08:01:56;;;;;;;18.17;8.20;;;;;;;;;;4878194;29;20057;-70
2021/11/18 08:04:28;;;;;;;15.25;8.88;;;;;;;;;;4878466;29;20061;-72
2021/11/18 08:07:03;;;;;;;13.52;8.00;;;;;;;;;;4876871;29;20077;-71
2021/11/18 08:09:34;;;;;;;11.50;6.07;;;;;;;;;;4864887;29;20174;-69
2021/11/18 08:12:07;;;;;;;9.50;4.18;;;;;;;;;;4893312;29;20065;-69
2021/11/18 08:14:37;;;;;;;6.55;3.55;;;;;;;;;;4870104;29;20418;-69
2021/11/18 08:17:08;;;;;;;6.72;3.50;;;;;;;;;;4859230;29;20073;-69
2021/11/18 08:19:39;;;;;;;5.93;3.08;;;;;;;;;;4856296;29;20054;-69
2021/11/18 08:22:14;;;;;;;4.72;2.40;;;;;;;;;;4818968;29;20067;-69
2021/11/18 08:24:45;;;;;;;3.80;2.10;;;;;;;;;;4822920;29;20050;-72
2021/11/18 08:27:16;;;;;;;4.07;2.05;;;;;;;;;;4822514;29;20077;-70
2021/11/18 08:29:47;;;;;;;5.25;2.55;;;;;;;;;;4801039;29;20067;-70
2021/11/18 08:32:18;;;;;;;2.38;0.70;;;;;;;;;;4822568;29;20054;-71
2021/11/18 08:34:54;;;;;;;2.55;1.05;;;;;;;;;;4838161;29;20055;-71
2021/11/18 08:37:24;;;;;;;3.20;1.10;;;;;;;;;;4792779;29;20153;-71
2021/11/18 08:39:55;;;;;;;1.48;0.88;;;;;;;;;;4822553;29;20487;-71
2021/11/18 08:42:27;;;;;;;2.53;0.70;;;;;;;;;;4822734;29;20059;-72
2021/11/18 08:45:08;;;;;;;1.55;0.55;;;;;;;;;;4790301;29;20051;-71
2021/11/18 08:47:39;;;;;;;2.13;0.75;;;;;;;;;;4816768;29;20075;-72
2021/11/18 08:50:13;;;;;;;2.10;0.40;;;;;;;;;;4822301;29;20058;-70
2021/11/18 08:52:46;;;;;;;2.05;0.30;;;;;;;;;;4846632;29;20058;-70
2021/11/18 08:55:22;;;;;;;2.92;0.57;;;;;;;;;;4858985;29;20056;-75
2021/11/18 08:57:55;;;;;;;1.85;0.47;;;;;;;;;;4874049;29;20058;-76
2021/11/18 09:00:45;;;;;;;3.35;0.40;;;;;;;;;;4855227;29;20049;-69
2021/11/18 09:03:24;;;;;;;4.00;0.52;;;;;;;;;;4808168;29;20055;-68
2021/11/18 09:05:57;;;;;;;5.28;0.30;;;;;;;;;;4820116;29;20061;-70
2021/11/18 09:08:28;;;;;;;0.98;0.32;;;;;;;;;;4822263;29;20061;-74
2021/11/18 09:11:07;;;;;;;2.97;0.30;;;;;;;;;;4838982;29;20050;-74
2021/11/18 09:13:45;;;;;;;1.05;0.30;;;;;;;;;;4839916;29;20070;-75
2021/11/18 09:16:19;;;;;;;2.88;0.30;;;;;;;;;;4840448;29;20054;-74
2021/11/18 09:19:16;;;;;;;4.55;0.22;;;;;;;;;;4827980;29;20054;-74
2021/11/18 09:21:53;;;;;;;1.02;0.30;;;;;;;;;;4831355;29;20649;-73
2021/11/18 09:24:32;;;;;;;1.67;0.45;;;;;;;;;;4785814;30;20063;-75
2021/11/18 09:27:18;;;;;;;4.05;0.50;;;;;;;;;;4815318;29;20047;-76
2021/11/18 09:29:50;;;;;;;4.28;0.55;;;;;;;;;;4803670;29;20054;-74
2021/11/18 09:32:29;;;;;;;5.45;0.38;;;;;;;;;;4835042;29;20065;-74
2021/11/18 09:35:24;;;;;;;2.78;0.50;;;;;;;;;;4839996;29;21187;-76
2021/11/18 09:37:57;;;;;;;1.23;0.55;;;;;;;;;;4839516;29;20046;-73
2021/11/18 09:40:30;;;;;;;;;;;;;;;;;;4858754;29;20573;-73
2021/11/18 09:43:28;;;;;;;3.65;0.43;;;;;;;;;;4876492;29;20453;-73
2021/11/18 09:46:24;;;;;;;1.58;0.60;;;;;;;;;;4865624;29;20060;-75
2021/11/18 09:49:20;;;;;;;6.70;0.80;;;;;;;;;;4800657;29;20493;-73
2021/11/18 09:52:05;;;;;;;5.93;0.80;;;;;;;;;;4749554;30;20067;-72
2021/11/18 09:54:54;;;;;;;3.45;0.57;;;;;;;;;;4767033;30;20062;-73
2021/11/18 09:58:01;;;;;;;3.90;0.70;;;;;;;;;;4768580;30;20063;-73
2021/11/18 10:00:57;;;;;;;3.42;1.38;;;;;;;;;;4734919;30;20061;-73
2021/11/18 10:03:38;;;;;;;3.47;0.90;;;;;;;;;;4766916;30;20056;-73
2021/11/18 10:06:20;;;;;;;3.60;1.00;;;;;;;;;;4784788;30;20072;-73
2021/11/18 10:09:39;;;;;;;2.42;0.52;;;;;;;;;;4802822;29;20619;-71
2021/11/18 10:12:47;;;;;;;7.30;0.68;;;;;;;;;;4820769;29;20054;-69
2021/11/18 10:15:22;;;;;;;4.03;1.17;;;;;;;;;;4802442;29;20051;-71
2021/11/18 10:18:00;;;;;;;3.75;1.20;;;;;;;;;;4795837;29;20140;-73
2021/11/18 10:20:35;;;;;;;9.00;1.10;;;;;;;;;;4785016;30;20062;-75
2021/11/18 10:23:24;;;;;;;5.45;1.35;;;;;;;;;;4783958;29;20067;-75
2021/11/18 10:26:07;;;;;;;1.60;0.60;;;;;;;;;;4750819;30;20104;-75
2021/11/18 10:28:45;;;;;;;12.35;1.20;;;;;;;;;;4797485;29;20062;-75
2021/11/18 10:31:22;;;;;;;2.40;0.80;;;;;;;;;;4822236;29;20062;-75
2021/11/18 10:34:10;;;;;;;11.75;1.10;;;;;;;;;;4839226;29;20069;-75
2021/11/18 10:37:02;;;;;;;3.33;1.08;;;;;;;;;;4823571;29;20058;-75
2021/11/18 10:39:40;;;;;;;5.88;0.77;;;;;;;;;;4857516;29;20057;-79
2021/11/18 10:42:20;;;;;;;1.30;0.60;;;;;;;;;;4857712;29;20438;-72
2021/11/18 10:45:10;;;;;;;2.40;0.70;;;;;;;;;;4910243;29;20059;-73
2021/11/18 10:48:00;;;;;;;1.85;0.60;;;;;;;;;;4909719;29;20048;-74
2021/11/18 10:50:47;;;;;;;2.08;0.80;;;;;;;;;;4894274;29;20071;-73
2021/11/18 10:53:27;;;;;;;2.28;0.93;;;;;;;;;;4894320;29;20596;-72
2021/11/18 10:56:12;;;;;;;4.47;0.65;;;;;;;;;;4875736;29;20053;-75
2021/11/18 10:59:05;;;;;;;2.03;0.90;;;;;;;;;;4836841;29;20418;-73
2021/11/18 11:01:43;;;;;;;2.88;0.93;;;;;;;;;;4871927;29;20061;-72
2021/11/18 11:05:00;;;;;;;6.55;1.20;;;;;;;;;;4875547;29;20053;-77
2021/11/18 11:07:38;;;;;;;1.73;0.52;;;;;;;;;;4804612;29;20050;-75
2021/11/18 11:10:16;;;;;;;2.70;0.60;;;;;;;;;;4820055;29;20177;-77
2021/11/18 11:13:11;;;;;;;2.08;1.08;;;;;;;;;;4813683;29;20461;-76
2021/11/18 11:15:56;;;;;;;4.15;0.70;;;;;;;;;;4819952;29;20059;-75
2021/11/18 11:18:36;;;;;;;3.55;1.00;;;;;;;;;;4820161;29;20054;-76
2021/11/18 11:21:28;;;;;;;3.33;1.20;;;;;;;;;;4820455;29;20058;-76
2021/11/18 11:24:08;;;;;;;3.92;0.90;;;;;;;;;;4838094;29;20065;-75
2021/11/18 11:26:50;;;;;;;3.95;0.90;;;;;;;;;;4838387;29;20065;-75
2021/11/18 11:29:38;;;;;;;2.85;1.02;;;;;;;;;;4875093;29;20060;-77
2021/11/18 11:32:11;;;;;;;3.58;1.35;;;;;;;;;;4911649;29;20520;-75
2021/11/18 11:34:56;;;;;;;3.78;1.00;;;;;;;;;;4912503;29;20079;-77
2021/11/18 11:37:59;;;;;;;2.40;0.90;;;;;;;;;;4934578;28;20059;-78
2021/11/18 11:40:47;;;;;;;1.48;0.85;;;;;;;;;;5008993;28;20069;-78
2021/11/18 11:43:36;;;;;;;3.15;1.00;;;;;;;;;;5009147;28;20053;-76
2021/11/18 11:46:26;;;;;;;2.08;0.88;;;;;;;;;;5009197;28;20045;-76
2021/11/18 11:48:57;;;;;;;2.13;0.70;;;;;;;;;;4992768;28;20494;-74
2021/11/18 11:52:00;;;;;;;2.72;0.77;;;;;;;;;;4991234;28;20063;-73
2021/11/18 11:55:10;;;;;;;4.55;1.00;;;;;;;;;;5028348;28;20049;-76
2021/11/18 11:58:05;;;;;;;5.70;3.03;;;;;;;;;;5028631;28;20054;-75
2021/11/18 12:00:51;;;;;;;2.35;1.30;;;;;;;;;;4988964;28;20054;-74
2021/11/18 12:03:32;;;;;;;4.35;2.42;;;;;;;;;;4985468;28;20569;-74
2021/11/18 12:06:25;;;;;;;5.70;3.15;;;;;;;;;;4969279;28;20051;-74
2021/11/18 12:09:08;;;;;;;4.80;2.85;;;;;;;;;;4994451;28;20058;-75
2021/11/18 12:11:53;;;;;;;3.63;1.95;;;;;;;;;;4993207;28;20050;-79
2021/11/18 12:14:30;;;;;;;3.67;1.67;;;;;;;;;;5009105;28;20058;-75
2021/11/18 12:17:06;;;;;;;3.53;1.35;;;;;;;;;;4993063;28;20054;-74
2021/11/18 12:19:57;;;;;;;2.90;1.00;;;;;;;;;;5008926;28;20057;-74
2021/11/18 12:22:39;;;;;;;1.98;0.60;;;;;;;;;;4976018;28;20413;-74
2021/11/18 12:25:20;;;;;;;2.20;0.95;;;;;;;;;;5008523;28;20657;-72
2021/11/18 12:28:18;;;;;;;2.15;0.80;;;;;;;;;;5009096;28;20508;-73
2021/11/18 12:31:07;;;;;;;1.60;0.80;;;;;;;;;;4992569;28;20050;-73
2021/11/18 12:34:26;;;;;;;4.72;1.00;;;;;;;;;;5009065;28;20050;-74
2021/11/18 12:37:15;;;;;;;1.73;0.98;;;;;;;;;;4950382;29;20055;-74
2021/11/18 12:40:24;;;;;;;2.70;1.10;;;;;;;;;;4930843;29;20051;-74
2021/11/18 12:43:12;;;;;;;4.93;0.85;;;;;;;;;;4893248;29;20060;-75
2021/11/18 12:46:01;;;;;;;2.78;0.60;;;;;;;;;;4911410;29;20064;-75
2021/11/18 12:49:02;;;;;;;1.92;0.45;;;;;;;;;;4932762;29;20051;-74
2021/11/18 12:51:45;;;;;;;1.75;0.60;;;;;;;;;;4915595;29;20060;-74
2021/11/18 12:54:40;;;;;;;1.50;0.60;;;;;;;;;;4915578;29;20055;-75
2021/11/18 12:57:32;;;;;;;0.88;0.40;;;;;;;;;;4896696;29;20075;-73
2021/11/18 13:00:12;;;;;;;3.35;0.73;;;;;;;;;;4896443;29;20169;-73
2021/11/18 13:03:05;;;;;;;0.93;0.40;;;;;;;;;;4896255;29;20076;-72
2021/11/18 13:05:55;;;;;;;0.80;0.50;;;;;;;;;;4843317;29;20061;-71
2021/11/18 13:08:41;;;;;;;1.13;0.50;;;;;;;;;;4840731;29;20050;-71
2021/11/18 13:11:26;;;;;;;1.02;0.38;;;;;;;;;;4840519;29;20065;-71
2021/11/18 13:14:09;;;;;;;0.73;0.40;;;;;;;;;;4840514;29;20158;-72
2021/11/18 13:16:51;;;;;;;32.53;5.75;;;;;;;;;;4840346;29;20054;-70
2021/11/18 13:19:28;;;;;;;6.22;1.20;;;;;;;;;;4835254;29;20071;-70
2021/11/18 13:22:01;;;;;;;2.78;0.75;;;;;;;;;;4821968;29;20684;-71
2021/11/18 13:24:58;;;;;;;1.40;0.35;;;;;;;;;;4821918;29;20081;-71
2021/11/18 13:27:36;;;;;;;2.15;0.40;;;;;;;;;;4807890;29;20066;-69
2021/11/18 13:30:23;;;;;;;1.05;0.80;;;;;;;;;;4840430;29;20062;-69
2021/11/18 13:32:56;;;;;;;0.82;0.40;;;;;;;;;;4840692;29;20081;-69
2021/11/18 13:35:33;;;;;;;1.20;0.50;;;;;;;;;;4868053;29;20417;-68
2021/11/18 13:38:12;;;;;;;0.82;0.50;;;;;;;;;;4865368;29;20058;-69
2021/11/18 13:41:04;;;;;;;1.10;0.63;;;;;;;;;;4896089;29;20060;-68
2021/11/18 13:43:55;;;;;;;2.30;0.40;;;;;;;;;;4941314;29;20511;-68
2021/11/18 13:46:30;;;;;;;1.77;0.40;;;;;;;;;;4952957;29;20058;-70
2021/11/18 13:49:02;;;;;;;2.05;0.40;;;;;;;;;;4953253;29;20063;-71
2021/11/18 13:51:51;;;;;;;0.73;0.43;;;;;;;;;;4980715;28;20054;-69
2021/11/18 13:54:26;;;;;;;27.42;5.32;;;;;;;;;;4936647;29;20062;-71
2021/11/18 13:57:09;;;;;;;20.48;4.88;;;;;;;;;;4927803;29;20763;-70
2021/11/18 13:59:42;;;;;;;3.42;1.05;;;;;;;;;;4971099;28;20047;-70
2021/11/18 14:02:41;;;;;;;2.75;1.02;;;;;;;;;;4991862;28;20053;-70
2021/11/18 14:05:18;;;;;;;6.20;3.70;;;;;;;;;;5010374;28;20058;-69
2021/11/18 14:07:56;;;;;;;4.93;2.67;;;;;;;;;;4994326;28;20057;-71
2021/11/18 14:10:34;;;;;;;2.78;0.82;;;;;;;;;;5010883;28;20121;-68
2021/11/18 14:13:14;;;;;;;1.70;0.40;;;;;;;;;;5010751;28;20053;-69
2021/11/18 14:16:02;;;;;;;1.92;0.60;;;;;;;;;;4962281;28;20056;-68
2021/11/18 14:19:04;;;;;;;1.80;0.60;;;;;;;;;;5010784;28;20065;-70
2021/11/18 14:21:44;;;;;;;1.67;0.60;;;;;;;;;;5010857;28;20054;-69
2021/11/18 14:24:35;;;;;;;1.48;0.52;;;;;;;;;;5030518;28;20061;-68
2021/11/18 14:27:08;;;;;;;1.92;0.70;;;;;;;;;;5009955;28;20049;-67
2021/11/18 14:29:53;;;;;;;1.75;0.65;;;;;;;;;;5030024;28;20053;-67
2021/11/18 14:32:30;;;;;;;1.40;0.60;;;;;;;;;;5019209;28;20054;-67
2021/11/18 14:35:25;;;;;;;1.02;0.75;;;;;;;;;;5010243;28;20054;-68
2021/11/18 14:38:00;;;;;;;1.65;0.70;;;;;;;;;;4970948;28;20059;-68
2021/11/18 14:40:56;;;;;;;2.80;1.10;;;;;;;;;;4932448;29;20055;-67
2021/11/18 14:43:48;;;;;;;1.20;0.55;;;;;;;;;;4933002;29;20056;-67
2021/11/18 14:46:28;;;;;;;2.22;0.73;;;;;;;;;;4932727;29;20051;-67
2021/11/18 14:49:23;;;;;;;0.35;0.30;;;;;;;;;;4932454;29;20531;-66
2021/11/18 14:51:54;;;;;;;4.43;0.50;;;;;;;;;;4932510;29;20051;-67
2021/11/18 14:54:35;;;;;;;0.68;0.38;;;;;;;;;;4932281;29;20058;-67
2021/11/18 14:57:20;;;;;;;0.63;0.40;;;;;;;;;;4932406;29;20075;-68
2021/11/18 14:59:53;;;;;;;2.25;0.70;;;;;;;;;;4932664;29;20420;-67
2021/11/18 15:02:24;;;;;;;0.52;0.50;;;;;;;;;;4931739;29;20058;-67
2021/11/18 15:04:55;;;;;;;3.20;0.68;;;;;;;;;;4942824;28;20522;-66
2021/11/18 15:07:28;;;;;;;1.95;0.50;;;;;;;;;;4961826;28;20086;-67
2021/11/18 15:10:03;;;;;;;0.68;0.60;;;;;;;;;;4979482;28;20054;-67
2021/11/18 15:12:34;;;;;;;1.70;0.65;;;;;;;;;;4989960;28;20054;-68
2021/11/18 15:15:09;;;;;;;0.77;0.63;;;;;;;;;;4986447;28;20060;-66
2021/11/18 15:17:43;;;;;;;2.15;0.70;;;;;;;;;;4967578;28;20057;-70
2021/11/18 15:20:15;;;;;;;2.35;0.82;;;;;;;;;;5049116;28;20595;-67
2021/11/18 15:22:49;;;;;;;1.48;0.70;;;;;;;;;;5049345;28;20052;-67
2021/11/18 15:25:22;;;;;;;1.05;0.50;;;;;;;;;;5028924;28;20041;-67
2021/11/18 15:27:53;;;;;;;2.15;0.70;;;;;;;;;;5028300;28;20076;-67
2021/11/18 15:30:38;;;;;;;0.93;0.50;;;;;;;;;;4957128;28;20049;-67
2021/11/18 15:33:11;;;;;;;1.67;0.88;;;;;;;;;;4969685;28;20066;-68
2021/11/18 15:35:41;;;;;;;1.38;0.55;;;;;;;;;;4934052;28;20047;-67
2021/11/18 15:38:33;;;;;;;1.77;0.63;;;;;;;;;;4950827;28;20059;-67
2021/11/18 15:41:06;;;;;;;0.85;0.75;;;;;;;;;;4950454;28;20096;-67
2021/11/18 15:43:38;;;;;;;1.35;0.63;;;;;;;;;;4950546;28;20047;-66
2021/11/18 15:46:09;;;;;;;1.27;0.60;;;;;;;;;;4950496;28;20063;-68
2021/11/18 15:48:42;;;;;;;1.52;0.77;;;;;;;;;;4932719;29;20052;-67